createdAt,value
2018-12-13T05:03:26.333Z,1016.29
2018-12-13T05:04:26.307Z,1016.26
2018-12-13T05:05:26.295Z,1016.23
2018-12-13T05:06:26.282Z,1016.24
2018-12-13T05:07:26.273Z,1016.28
2018-12-13T05:08:26.288Z,1016.27
2018-12-13T05:09:26.251Z,1016.26
2018-12-13T05:10:26.247Z,1016.31
2018-12-13T05:11:26.230Z,1016.25
2018-12-13T05:12:26.218Z,1016.25
2018-12-13T05:13:26.238Z,1016.21
2018-12-13T05:14:26.199Z,1016.20
2018-12-13T05:15:26.187Z,1016.17
2018-12-13T05:16:26.179Z,1016.16
2018-12-13T05:17:26.169Z,1016.18
2018-12-13T05:18:26.187Z,1016.23
2018-12-13T05:19:26.155Z,1016.20
2018-12-13T05:20:26.134Z,1016.17
2018-12-13T05:21:26.127Z,1016.16
2018-12-13T05:22:26.114Z,1016.14
2018-12-13T05:23:26.121Z,1016.12
2018-12-13T05:24:26.101Z,1016.14
2018-12-13T05:25:33.196Z,1016.11
2018-12-13T05:26:26.071Z,1016.11
2018-12-13T05:27:26.061Z,1016.12
2018-12-13T05:28:26.068Z,1016.11
2018-12-13T05:29:26.044Z,1016.09
2018-12-13T05:30:26.029Z,1016.01
2018-12-13T05:31:26.021Z,1016.04
2018-12-13T05:32:26.012Z,1016.03
2018-12-13T05:33:26.016Z,1016.02
2018-12-13T05:34:25.988Z,1016.00
2018-12-13T05:35:26.099Z,1016.03
2018-12-13T05:36:25.967Z,1016.04
2018-12-13T05:37:25.963Z,1015.98
2018-12-13T05:38:25.972Z,1015.97
2018-12-13T05:39:25.941Z,1016.03
2018-12-13T05:40:25.923Z,1016.03
2018-12-13T05:41:25.927Z,1016.01
2018-12-13T05:42:25.922Z,1016.02
2018-12-13T05:43:25.986Z,1016.03
2018-12-13T05:44:25.879Z,1016.05
2018-12-13T05:45:25.869Z,1016.02
2018-12-13T05:46:25.869Z,1016.05
2018-12-13T05:47:25.853Z,1016.02
2018-12-13T05:48:25.858Z,1016.04
2018-12-13T05:49:25.827Z,1016.02
2018-12-13T05:50:25.816Z,1016.00
2018-12-13T05:51:25.807Z,1016.02
2018-12-13T05:52:25.820Z,1015.98
2018-12-13T05:53:25.815Z,1015.99
2018-12-13T05:54:25.774Z,1015.99
2018-12-13T05:55:25.767Z,1015.99
2018-12-13T05:56:25.753Z,1016.00
2018-12-13T05:57:25.741Z,1016.02
2018-12-13T05:58:25.743Z,1015.97
2018-12-13T05:59:25.737Z,1015.98
2018-12-13T06:00:25.714Z,1015.94
2018-12-13T06:01:25.698Z,1015.96
2018-12-13T06:02:25.689Z,1015.95
2018-12-13T06:03:25.678Z,1015.97
2018-12-13T06:04:25.694Z,1015.94
2018-12-13T06:05:25.671Z,1015.98
2018-12-13T06:06:25.650Z,1015.95
2018-12-13T06:07:25.640Z,1016.00
2018-12-13T06:08:25.624Z,1016.03
2018-12-13T06:09:25.632Z,1015.95
2018-12-13T06:10:25.607Z,1015.95
2018-12-13T06:11:25.597Z,1015.96
2018-12-13T06:12:25.594Z,1015.97
2018-12-13T06:13:25.577Z,1016.00
2018-12-13T06:14:25.579Z,1015.94
2018-12-13T06:15:25.551Z,1015.94
2018-12-13T06:16:25.540Z,1015.96
2018-12-13T06:17:25.535Z,1015.97
2018-12-13T06:18:25.533Z,1015.96
2018-12-13T06:19:26.827Z,1015.99
2018-12-13T06:20:25.507Z,1015.98
2018-12-13T06:21:25.492Z,1015.96
2018-12-13T06:22:25.484Z,1016.05
2018-12-13T06:23:25.466Z,1016.04
2018-12-13T06:24:25.479Z,1016.05
2018-12-13T06:25:25.458Z,1016.01
2018-12-13T06:26:25.433Z,1016.00
2018-12-13T06:27:25.429Z,1016.02
2018-12-13T06:28:25.423Z,1015.98
2018-12-13T06:29:25.427Z,1016.02
2018-12-13T06:30:25.407Z,1016.00
2018-12-13T06:31:25.383Z,1016.01
2018-12-13T06:32:25.377Z,1016.03
2018-12-13T06:33:25.360Z,1016.03
2018-12-13T06:34:25.369Z,1016.05
2018-12-13T06:35:25.340Z,1016.10
2018-12-13T06:36:25.329Z,1016.09
2018-12-13T06:37:25.320Z,1016.07
2018-12-13T06:38:25.319Z,1016.05
2018-12-13T06:39:25.337Z,1016.07
2018-12-13T06:40:25.290Z,1016.10
2018-12-13T06:41:25.283Z,1016.13
2018-12-13T06:42:25.274Z,1016.05
2018-12-13T06:43:25.261Z,1016.09
2018-12-13T06:44:25.269Z,1016.11
2018-12-13T06:45:25.236Z,1016.07
2018-12-13T06:46:25.254Z,1016.06
2018-12-13T06:47:25.286Z,1016.09
2018-12-13T06:48:25.209Z,1016.09
2018-12-13T06:49:25.213Z,1016.07
2018-12-13T06:50:25.181Z,1016.08
2018-12-13T06:51:25.172Z,1016.11
2018-12-13T06:52:25.159Z,1016.14
2018-12-13T06:53:25.160Z,1016.05
2018-12-13T06:54:25.158Z,1016.10
2018-12-13T06:55:25.126Z,1016.07
2018-12-13T06:56:25.117Z,1016.10
2018-12-13T06:57:25.105Z,1016.09
2018-12-13T06:58:25.096Z,1016.10
2018-12-13T06:59:25.121Z,1016.11
2018-12-13T07:00:25.075Z,1016.08
2018-12-13T07:01:25.071Z,1016.13
2018-12-13T07:02:25.051Z,1016.13
2018-12-13T07:03:25.040Z,1016.12
2018-12-13T07:04:25.052Z,1016.15
2018-12-13T07:05:25.034Z,1016.10
2018-12-13T07:06:25.009Z,1016.14
2018-12-13T07:07:24.999Z,1016.13
2018-12-13T07:08:24.988Z,1016.11
2018-12-13T07:09:24.996Z,1016.13
2018-12-13T07:10:24.966Z,1016.14
2018-12-13T07:11:24.961Z,1016.19
2018-12-13T07:12:24.949Z,1016.18
2018-12-13T07:13:24.967Z,1016.16
2018-12-13T07:14:24.944Z,1016.20
2018-12-13T07:15:24.916Z,1016.17
2018-12-13T07:16:24.902Z,1016.19
2018-12-13T07:17:24.896Z,1016.17
2018-12-13T07:18:24.881Z,1016.14
2018-12-13T07:19:24.893Z,1016.19
2018-12-13T07:20:26.221Z,1016.14
2018-12-13T07:21:24.848Z,1016.23
2018-12-13T07:22:24.841Z,1016.23
2018-12-13T07:23:24.837Z,1016.28
2018-12-13T07:24:24.850Z,1016.30
2018-12-13T07:25:24.829Z,1016.26
2018-12-13T07:26:24.798Z,1016.27
2018-12-13T07:27:24.785Z,1016.27
2018-12-13T07:28:24.789Z,1016.30
2018-12-13T07:29:24.793Z,1016.31
2018-12-13T07:30:24.753Z,1016.29
2018-12-13T07:31:24.754Z,1016.31
2018-12-13T07:32:24.731Z,1016.33
2018-12-13T07:33:24.725Z,1016.37
2018-12-13T07:34:24.730Z,1016.34
2018-12-13T07:35:24.713Z,1016.38
2018-12-13T07:36:24.697Z,1016.35
2018-12-13T07:37:24.710Z,1016.34
2018-12-13T07:38:24.668Z,1016.36
2018-12-13T07:39:24.705Z,1016.36
2018-12-13T07:40:24.647Z,1016.40
2018-12-13T07:41:24.650Z,1016.39
2018-12-13T07:42:24.632Z,1016.36
2018-12-13T07:43:24.644Z,1016.32
2018-12-13T07:44:24.632Z,1016.38
2018-12-13T07:45:24.596Z,1016.38
2018-12-13T07:46:24.587Z,1016.35
2018-12-13T07:47:24.571Z,1016.37
2018-12-13T07:48:24.565Z,1016.38
2018-12-13T07:49:24.629Z,1016.33
2018-12-13T07:50:24.545Z,1016.39
2018-12-13T07:51:24.528Z,1016.42
2018-12-13T07:52:24.519Z,1016.41
2018-12-13T07:53:24.509Z,1016.42
2018-12-13T07:54:24.568Z,1016.45
2018-12-13T07:55:24.522Z,1016.45
2018-12-13T07:56:24.484Z,1016.49
2018-12-13T07:57:24.470Z,1016.44
2018-12-13T07:58:24.725Z,1016.48
2018-12-13T07:59:24.444Z,1016.46
2018-12-13T08:00:24.464Z,1016.43
2018-12-13T08:01:24.432Z,1016.42
2018-12-13T08:02:24.447Z,1016.47
2018-12-13T08:03:24.524Z,1016.42
2018-12-13T08:04:24.392Z,1016.40
2018-12-13T08:05:24.400Z,1016.44
2018-12-13T08:06:24.431Z,1016.43
2018-12-13T08:07:24.489Z,1016.43
2018-12-13T08:08:24.350Z,1016.47
2018-12-13T08:09:24.344Z,1016.49
2018-12-13T08:10:24.349Z,1016.48
2018-12-13T08:11:24.316Z,1016.48
2018-12-13T08:12:24.349Z,1016.55
2018-12-13T08:13:24.296Z,1016.53
2018-12-13T08:14:24.313Z,1016.53
2018-12-13T08:15:24.292Z,1016.52
2018-12-13T08:16:24.265Z,1016.52
2018-12-13T08:17:24.254Z,1016.50
2018-12-13T08:18:24.379Z,1016.54
2018-12-13T08:19:24.234Z,1016.47
2018-12-13T08:20:24.292Z,1016.54
2018-12-13T08:21:24.212Z,1016.50
2018-12-13T08:22:24.210Z,1016.44
2018-12-13T08:23:24.192Z,1016.47
2018-12-13T08:24:24.177Z,1016.45
2018-12-13T08:25:24.191Z,1016.47
2018-12-13T08:26:24.161Z,1016.45
2018-12-13T08:27:24.148Z,1016.48
2018-12-13T08:28:24.140Z,1016.50
2018-12-13T08:29:24.122Z,1016.54
2018-12-13T08:30:24.131Z,1016.52
2018-12-13T08:31:24.102Z,1016.54
2018-12-13T08:32:24.103Z,1016.54
2018-12-13T08:33:24.082Z,1016.57
2018-12-13T08:34:24.073Z,1016.56
2018-12-13T08:35:24.080Z,1016.51
2018-12-13T08:36:24.048Z,1016.55
2018-12-13T08:37:24.062Z,1016.57
2018-12-13T08:38:27.297Z,1016.53
2018-12-13T08:39:24.018Z,1016.55
2018-12-13T08:40:24.025Z,1016.59
2018-12-13T08:41:23.997Z,1016.58
2018-12-13T08:42:23.984Z,1016.51
2018-12-13T08:43:23.972Z,1016.52
2018-12-13T08:44:23.962Z,1016.53
2018-12-13T08:45:24.422Z,1016.50
2018-12-13T08:46:23.941Z,1016.51
2018-12-13T08:47:23.929Z,1016.52
2018-12-13T08:48:23.927Z,1016.53
2018-12-13T08:49:23.921Z,1016.56
2018-12-13T08:50:23.915Z,1016.51
2018-12-13T08:51:23.888Z,1016.51
2018-12-13T08:52:23.875Z,1016.50
2018-12-13T08:53:23.865Z,1016.52
2018-12-13T08:54:23.939Z,1016.51
2018-12-13T08:55:23.859Z,1016.49
2018-12-13T08:56:23.836Z,1016.50
2018-12-13T08:57:23.827Z,1016.46
2018-12-13T08:58:23.812Z,1016.48
2018-12-13T08:59:23.813Z,1016.49
2018-12-13T09:00:23.811Z,1016.49
2018-12-13T09:01:23.783Z,1016.47
2018-12-13T09:02:23.770Z,1016.46
2018-12-13T09:03:23.760Z,1016.51
2018-12-13T09:04:23.746Z,1016.51
2018-12-13T09:05:23.763Z,1016.48
2018-12-13T09:06:23.728Z,1016.47
2018-12-13T09:07:23.736Z,1016.45
2018-12-13T09:08:23.705Z,1016.48
2018-12-13T09:09:23.693Z,1016.42
2018-12-13T09:10:23.703Z,1016.40
2018-12-13T09:11:23.683Z,1016.42
2018-12-13T09:12:23.665Z,1016.39
2018-12-13T09:13:23.660Z,1016.44
2018-12-13T09:14:23.638Z,1016.42
2018-12-13T09:15:23.650Z,1016.42
2018-12-13T09:16:23.629Z,1016.48
2018-12-13T09:17:23.610Z,1016.43
2018-12-13T09:18:23.601Z,1016.50
2018-12-13T09:19:23.606Z,1016.42
2018-12-13T09:20:23.603Z,1016.47
2018-12-13T09:21:23.570Z,1016.40
2018-12-13T09:22:23.554Z,1016.41
2018-12-13T09:23:23.547Z,1016.40
2018-12-13T09:24:23.538Z,1016.37
2018-12-13T09:25:23.546Z,1016.39
2018-12-13T09:26:23.518Z,1016.35
2018-12-13T09:27:23.504Z,1016.37
2018-12-13T09:28:23.494Z,1016.37
2018-12-13T09:29:23.483Z,1016.35
2018-12-13T09:30:23.502Z,1016.38
2018-12-13T09:31:23.480Z,1016.38
2018-12-13T09:32:23.449Z,1016.39
2018-12-13T09:33:23.437Z,1016.38
2018-12-13T09:34:23.454Z,1016.41
2018-12-13T09:35:24.086Z,1016.34
2018-12-13T09:36:23.527Z,1016.39
2018-12-13T09:37:23.394Z,1016.31
2018-12-13T09:38:23.383Z,1016.44
2018-12-13T09:39:23.375Z,1016.42
2018-12-13T09:40:23.381Z,1016.45
2018-12-13T09:41:23.372Z,1016.40
2018-12-13T09:42:23.348Z,1016.41
2018-12-13T09:43:23.331Z,1016.44
2018-12-13T09:44:23.328Z,1016.46
2018-12-13T09:45:23.312Z,1016.47
2018-12-13T09:46:23.318Z,1016.42
2018-12-13T09:47:23.290Z,1016.42
2018-12-13T09:48:23.281Z,1016.46
2018-12-13T09:49:23.283Z,1016.46
2018-12-13T09:50:23.258Z,1016.48
2018-12-13T09:51:23.269Z,1016.46
2018-12-13T09:52:23.239Z,1016.43
2018-12-13T09:53:23.256Z,1016.40
2018-12-13T09:54:23.216Z,1016.46
2018-12-13T09:55:23.211Z,1016.42
2018-12-13T09:56:23.220Z,1016.40
2018-12-13T09:57:23.186Z,1016.40
2018-12-13T09:58:23.175Z,1016.35
2018-12-13T09:59:24.571Z,1016.34
2018-12-13T10:00:23.168Z,1016.36
2018-12-13T10:01:23.178Z,1016.35
2018-12-13T10:02:23.186Z,1016.35
2018-12-13T10:03:23.140Z,1016.26
2018-12-13T10:04:23.114Z,1016.31
2018-12-13T10:05:23.102Z,1016.32
2018-12-13T10:06:23.122Z,1016.29
2018-12-13T10:07:23.085Z,1016.31
2018-12-13T10:08:23.073Z,1016.29
2018-12-13T10:09:23.060Z,1016.24
2018-12-13T10:10:23.054Z,1016.26
2018-12-13T10:11:23.061Z,1016.24
2018-12-13T10:12:23.035Z,1016.24
2018-12-13T10:13:23.080Z,1016.26
2018-12-13T10:14:23.009Z,1016.20
2018-12-13T10:15:22.999Z,1016.14
2018-12-13T10:16:23.022Z,1016.12
2018-12-13T10:17:22.987Z,1016.14
2018-12-13T10:18:22.975Z,1016.13
2018-12-13T10:19:22.964Z,1016.10
2018-12-13T10:20:22.960Z,1016.07
2018-12-13T10:21:22.954Z,1016.01
2018-12-13T10:22:22.941Z,1016.09
2018-12-13T10:23:22.914Z,1016.02
2018-12-13T10:24:22.903Z,1016.03
2018-12-13T10:25:22.902Z,1016.02
2018-12-13T10:26:22.899Z,1016.00
2018-12-13T10:27:22.926Z,1016.03
2018-12-13T10:28:22.860Z,1016.03
2018-12-13T10:29:22.862Z,1016.02
2018-12-13T10:30:22.839Z,1015.95
2018-12-13T10:31:22.858Z,1015.96
2018-12-13T10:32:22.821Z,1015.91
2018-12-13T10:33:22.806Z,1015.93
2018-12-13T10:34:22.864Z,1015.89
2018-12-13T10:35:22.790Z,1015.89
2018-12-13T10:36:22.814Z,1015.88
2018-12-13T10:37:22.765Z,1015.88
2018-12-13T10:38:22.754Z,1015.87
2018-12-13T10:39:22.757Z,1015.86
2018-12-13T10:40:22.734Z,1015.82
2018-12-13T10:41:22.753Z,1015.86
2018-12-13T10:42:22.722Z,1015.84
2018-12-13T10:43:22.709Z,1015.79
2018-12-13T10:44:22.700Z,1015.89
2018-12-13T10:45:22.682Z,1015.83
2018-12-13T10:46:22.690Z,1015.71
2018-12-13T10:47:22.659Z,1015.72
2018-12-13T10:48:22.653Z,1015.73
2018-12-13T10:49:22.652Z,1015.75
2018-12-13T10:50:22.638Z,1015.72
2018-12-13T10:51:22.651Z,1015.82
2018-12-13T10:52:22.651Z,1015.82
2018-12-13T10:53:22.596Z,1015.70
2018-12-13T10:54:22.627Z,1015.83
2018-12-13T10:55:22.575Z,1015.86
2018-12-13T10:56:22.636Z,1015.81
2018-12-13T10:57:22.550Z,1015.77
2018-12-13T10:58:22.540Z,1015.71
2018-12-13T10:59:22.535Z,1015.78
2018-12-13T11:00:22.529Z,1015.80
2018-12-13T11:01:22.526Z,1015.73
2018-12-13T11:02:22.518Z,1015.88
2018-12-13T11:03:22.485Z,1015.84
2018-12-13T11:04:22.475Z,1015.81
2018-12-13T11:05:22.473Z,1015.83
2018-12-13T11:06:22.492Z,1015.79
2018-12-13T11:07:22.447Z,1015.86
2018-12-13T11:08:22.452Z,1015.78
2018-12-13T11:09:22.427Z,1015.73
2018-12-13T11:10:25.357Z,1015.81
2018-12-13T11:11:22.421Z,1015.80
2018-12-13T11:12:22.394Z,1015.79
2018-12-13T11:13:22.390Z,1015.76
2018-12-13T11:14:22.381Z,1015.76
2018-12-13T11:15:22.399Z,1015.72
2018-12-13T11:16:22.379Z,1015.69
2018-12-13T11:17:22.342Z,1015.70
2018-12-13T11:18:22.331Z,1015.72
2018-12-13T11:19:22.327Z,1015.71
2018-12-13T11:20:22.332Z,1015.73
2018-12-13T11:21:22.331Z,1015.66
2018-12-13T11:22:22.293Z,1015.70
2018-12-13T11:23:22.281Z,1015.65
2018-12-13T11:24:22.269Z,1015.65
2018-12-13T11:25:22.262Z,1015.66
2018-12-13T11:26:22.256Z,1015.70
2018-12-13T11:27:22.264Z,1015.70
2018-12-13T11:28:22.229Z,1015.65
2018-12-13T11:29:22.217Z,1015.66
2018-12-13T11:30:22.212Z,1015.63
2018-12-13T11:31:22.217Z,1015.69
2018-12-13T11:32:22.208Z,1015.59
2018-12-13T11:33:22.182Z,1015.65
2018-12-13T11:34:22.169Z,1015.63
2018-12-13T11:35:22.155Z,1015.62
2018-12-13T11:36:22.148Z,1015.67
2018-12-13T11:37:22.163Z,1015.58
2018-12-13T11:38:22.157Z,1015.66
2018-12-13T11:39:22.111Z,1015.58
2018-12-13T11:40:22.104Z,1015.53
2018-12-13T11:41:22.092Z,1015.55
2018-12-13T11:42:22.097Z,1015.50
2018-12-13T11:43:22.071Z,1015.52
2018-12-13T11:44:22.062Z,1015.48
2018-12-13T11:45:22.054Z,1015.51
2018-12-13T11:46:22.045Z,1015.44
2018-12-13T11:47:22.400Z,1015.41
2018-12-13T11:48:22.033Z,1015.32
2018-12-13T11:49:22.009Z,1015.31
2018-12-13T11:50:21.995Z,1015.31
2018-12-13T11:51:22.003Z,1015.39
2018-12-13T11:52:21.992Z,1015.26
2018-12-13T11:53:21.989Z,1015.29
2018-12-13T11:54:21.952Z,1015.27
2018-12-13T11:55:21.944Z,1015.22
2018-12-13T11:56:21.936Z,1015.22
2018-12-13T11:57:21.940Z,1015.22
2018-12-13T11:58:21.913Z,1015.27
2018-12-13T11:59:21.901Z,1015.21
2018-12-13T12:00:21.887Z,1015.23
2018-12-13T12:01:21.885Z,1015.23
2018-12-13T12:02:24.168Z,1015.19
2018-12-13T12:03:21.856Z,1015.17
2018-12-13T12:04:21.851Z,1015.13
2018-12-13T12:05:21.837Z,1015.16
2018-12-13T12:06:21.832Z,1015.19
2018-12-13T12:07:21.832Z,1015.17
2018-12-13T12:08:21.807Z,1015.11
2018-12-13T12:09:21.795Z,1015.07
2018-12-13T12:10:21.783Z,1015.09
2018-12-13T12:11:21.787Z,1015.13
2018-12-13T12:12:21.785Z,1015.13
2018-12-13T12:13:21.757Z,1015.15
2018-12-13T12:14:21.745Z,1015.12
2018-12-13T12:15:21.747Z,1015.06
2018-12-13T12:16:21.725Z,1015.08
2018-12-13T12:17:21.727Z,1015.06
2018-12-13T12:18:21.702Z,1015.09
2018-12-13T12:19:21.691Z,1015.11
2018-12-13T12:20:21.682Z,1015.10
2018-12-13T12:21:21.684Z,1015.05
2018-12-13T12:22:21.679Z,1015.05
2018-12-13T12:23:21.651Z,1015.05
2018-12-13T12:24:21.646Z,1015.03
2018-12-13T12:25:21.629Z,1014.97
2018-12-13T12:26:21.617Z,1015.05
2018-12-13T12:27:21.626Z,1014.96
2018-12-13T12:28:21.597Z,1014.99
2018-12-13T12:29:21.583Z,1014.98
2018-12-13T12:30:21.574Z,1014.94
2018-12-13T12:31:21.571Z,1014.95
2018-12-13T12:32:21.574Z,1014.92
2018-12-13T12:33:21.547Z,1014.93
2018-12-13T12:34:21.598Z,1014.99
2018-12-13T12:35:21.535Z,1014.89
2018-12-13T12:36:21.509Z,1014.92
2018-12-13T12:37:21.526Z,1014.90
2018-12-13T12:38:21.501Z,1014.88
2018-12-13T12:39:21.482Z,1014.91
2018-12-13T12:40:21.469Z,1014.86
2018-12-13T12:41:21.460Z,1014.86
2018-12-13T12:42:21.465Z,1014.82
2018-12-13T12:43:21.435Z,1014.83
2018-12-13T12:44:21.427Z,1014.71
2018-12-13T12:45:21.416Z,1014.69
2018-12-13T12:46:21.405Z,1014.68
2018-12-13T12:47:21.411Z,1014.70
2018-12-13T12:48:21.390Z,1014.73
2018-12-13T12:49:21.376Z,1014.69
2018-12-13T12:50:21.360Z,1014.61
2018-12-13T12:51:21.357Z,1014.64
2018-12-13T12:52:21.365Z,1014.65
2018-12-13T12:53:21.331Z,1014.65
2018-12-13T12:54:21.318Z,1014.61
2018-12-13T12:55:21.307Z,1014.62
2018-12-13T12:56:21.299Z,1014.63
2018-12-13T12:57:21.305Z,1014.57
2018-12-13T12:58:21.276Z,1014.60
2018-12-13T12:59:21.270Z,1014.59
2018-12-13T13:00:21.270Z,1014.60
2018-12-13T13:01:21.245Z,1014.62
2018-12-13T13:02:21.254Z,1014.61
2018-12-13T13:03:21.231Z,1014.63
2018-12-13T13:04:21.215Z,1014.65
2018-12-13T13:05:21.201Z,1014.63
2018-12-13T13:06:21.228Z,1014.65
2018-12-13T13:07:21.198Z,1014.64
2018-12-13T13:08:21.173Z,1014.61
2018-12-13T13:09:24.953Z,1014.58
2018-12-13T13:10:21.149Z,1014.57
2018-12-13T13:11:21.139Z,1014.61
2018-12-13T13:12:21.145Z,1014.59
2018-12-13T13:13:21.120Z,1014.59
2018-12-13T13:14:21.104Z,1014.57
2018-12-13T13:15:21.099Z,1014.50
2018-12-13T13:16:21.084Z,1014.50
2018-12-13T13:17:21.113Z,1014.54
2018-12-13T13:18:21.086Z,1014.47
2018-12-13T13:19:21.059Z,1014.54
2018-12-13T13:20:21.039Z,1014.48
2018-12-13T13:21:21.041Z,1014.49
2018-12-13T13:22:21.019Z,1014.50
2018-12-13T13:23:21.028Z,1014.58
2018-12-13T13:24:20.998Z,1014.50
2018-12-13T13:25:20.990Z,1014.58
2018-12-13T13:26:20.977Z,1014.56
2018-12-13T13:27:20.968Z,1014.56
2018-12-13T13:28:20.985Z,1014.53
2018-12-13T13:29:20.947Z,1014.56
2018-12-13T13:30:20.943Z,1014.51
2018-12-13T13:31:20.929Z,1014.54
2018-12-13T13:32:20.913Z,1014.52
2018-12-13T13:33:20.922Z,1014.55
2018-12-13T13:34:20.892Z,1014.55
2018-12-13T13:35:20.880Z,1014.54
2018-12-13T13:36:20.868Z,1014.51
2018-12-13T13:37:20.864Z,1014.59
2018-12-13T13:38:20.879Z,1014.54
2018-12-13T13:39:20.839Z,1014.55
2018-12-13T13:40:20.829Z,1014.53
2018-12-13T13:41:20.824Z,1014.52
2018-12-13T13:42:20.871Z,1014.50
2018-12-13T13:43:20.814Z,1014.50
2018-12-13T13:44:20.803Z,1014.49
2018-12-13T13:45:20.787Z,1014.53
2018-12-13T13:46:20.764Z,1014.53
2018-12-13T13:47:20.751Z,1014.50
2018-12-13T13:48:20.762Z,1014.48
2018-12-13T13:49:20.738Z,1014.50
2018-12-13T13:50:20.722Z,1014.51
2018-12-13T13:51:20.718Z,1014.48
2018-12-13T13:52:20.697Z,1014.47
2018-12-13T13:53:20.741Z,1014.45
2018-12-13T13:54:20.678Z,1014.41
2018-12-13T13:55:20.666Z,1014.43
2018-12-13T13:56:20.653Z,1014.41
2018-12-13T13:57:20.647Z,1014.43
2018-12-13T13:58:20.664Z,1014.42
2018-12-13T13:59:20.625Z,1014.40
2018-12-13T14:00:20.623Z,1014.45
2018-12-13T14:01:20.601Z,1014.42
2018-12-13T14:02:20.596Z,1014.45
2018-12-13T14:03:20.604Z,1014.37
2018-12-13T14:04:20.590Z,1014.41
2018-12-13T14:05:20.563Z,1014.38
2018-12-13T14:06:20.548Z,1014.36
2018-12-13T14:07:20.538Z,1014.33
2018-12-13T14:08:20.547Z,1014.31
2018-12-13T14:09:20.532Z,1014.32
2018-12-13T14:10:20.508Z,1014.32
2018-12-13T14:11:20.499Z,1014.36
2018-12-13T14:12:20.483Z,1014.34
2018-12-13T14:13:20.496Z,1014.33
2018-12-13T14:14:20.470Z,1014.36
2018-12-13T14:15:20.463Z,1014.43
2018-12-13T14:16:20.444Z,1014.41
2018-12-13T14:17:20.431Z,1014.44
2018-12-13T14:18:20.440Z,1014.37
2018-12-13T14:19:20.704Z,1014.47
2018-12-13T14:20:20.406Z,1014.39
2018-12-13T14:21:20.405Z,1014.43
2018-12-13T14:22:20.382Z,1014.40
2018-12-13T14:23:20.389Z,1014.42
2018-12-13T14:24:20.361Z,1014.35
2018-12-13T14:25:20.356Z,1014.41
2018-12-13T14:26:20.338Z,1014.52
2018-12-13T14:27:20.334Z,1014.44
2018-12-13T14:28:20.335Z,1014.42
2018-12-13T14:29:20.314Z,1014.42
2018-12-13T14:30:20.297Z,1014.50
2018-12-13T14:31:20.281Z,1014.48
2018-12-13T14:32:20.275Z,1014.53
2018-12-13T14:33:20.317Z,1014.54
2018-12-13T14:34:20.252Z,1014.49
2018-12-13T14:35:20.241Z,1014.56
2018-12-13T14:36:20.226Z,1014.49
2018-12-13T14:37:20.217Z,1014.53
2018-12-13T14:38:20.226Z,1014.51
2018-12-13T14:39:20.205Z,1014.52
2018-12-13T14:40:20.185Z,1014.58
2018-12-13T14:41:20.174Z,1014.55
2018-12-13T14:42:20.165Z,1014.61
2018-12-13T14:43:20.178Z,1014.56
2018-12-13T14:44:20.146Z,1014.67
2018-12-13T14:45:20.136Z,1014.60
2018-12-13T14:46:20.120Z,1014.61
2018-12-13T14:47:20.109Z,1014.70
2018-12-13T14:48:20.118Z,1014.70
2018-12-13T14:49:20.090Z,1014.64
2018-12-13T14:50:20.094Z,1014.66
2018-12-13T14:51:20.078Z,1014.64
2018-12-13T14:52:20.055Z,1014.65
2018-12-13T14:53:20.074Z,1014.66
2018-12-13T14:54:20.046Z,1014.72
2018-12-13T14:55:20.025Z,1014.76
2018-12-13T14:56:20.019Z,1014.69
2018-12-13T14:57:20.005Z,1014.71
2018-12-13T14:58:20.042Z,1014.73
2018-12-13T14:59:19.985Z,1014.74
2018-12-13T15:00:19.980Z,1014.74
2018-12-13T15:01:19.969Z,1014.75
2018-12-13T15:02:19.954Z,1014.73
2018-12-13T15:03:19.962Z,1014.75
2018-12-13T15:04:19.932Z,1014.72
2018-12-13T15:05:19.922Z,1014.73
2018-12-13T15:06:19.907Z,1014.74
2018-12-13T15:07:19.896Z,1014.76
2018-12-13T15:08:19.903Z,1014.77
2018-12-13T15:09:19.878Z,1014.79
2018-12-13T15:10:19.879Z,1014.75
2018-12-13T15:11:19.857Z,1014.75
2018-12-13T15:12:19.845Z,1014.77
2018-12-13T15:13:19.859Z,1014.76
2018-12-13T15:14:19.833Z,1014.77
2018-12-13T15:15:19.816Z,1014.76
2018-12-13T15:16:19.803Z,1014.81
2018-12-13T15:17:19.798Z,1014.84
2018-12-13T15:18:19.781Z,1014.82
2018-12-13T15:19:19.802Z,1014.90
2018-12-13T15:20:19.757Z,1014.88
2018-12-13T15:21:19.846Z,1014.94
2018-12-13T15:22:19.766Z,1014.90
2018-12-13T15:23:20.086Z,1014.91
2018-12-13T15:24:19.795Z,1014.90
2018-12-13T15:25:19.727Z,1014.92
2018-12-13T15:26:19.704Z,1014.93
2018-12-13T15:27:19.681Z,1014.96
2018-12-13T15:28:19.684Z,1014.96
2018-12-13T15:29:20.596Z,1014.96
2018-12-13T15:30:20.759Z,1014.97
2018-12-13T15:31:19.747Z,1014.92
2018-12-13T15:32:19.628Z,1014.92
2018-12-13T15:33:19.781Z,1014.90
2018-12-13T15:34:19.766Z,1014.87
2018-12-13T15:35:19.625Z,1014.87
2018-12-13T15:36:19.611Z,1014.89
2018-12-13T15:37:19.653Z,1014.87
2018-12-13T15:38:20.135Z,1014.87
2018-12-13T15:39:19.584Z,1014.87
2018-12-13T15:40:19.618Z,1014.82
2018-12-13T15:41:19.735Z,1014.84
2018-12-13T15:42:19.544Z,1014.81
2018-12-13T15:43:19.610Z,1014.87
2018-12-13T15:44:22.768Z,1014.89
2018-12-13T15:45:19.497Z,1014.94
2018-12-13T15:46:19.495Z,1014.93
2018-12-13T15:47:19.468Z,1014.92
2018-12-13T15:48:19.469Z,1015.00
2018-12-13T15:49:19.492Z,1014.99
2018-12-13T15:50:19.451Z,1014.99
2018-12-13T15:51:19.425Z,1015.04
2018-12-13T15:52:19.415Z,1015.08
2018-12-13T15:53:19.405Z,1015.07
2018-12-13T15:54:19.453Z,1015.07
2018-12-13T15:55:19.467Z,1015.07
2018-12-13T15:56:19.394Z,1015.11
2018-12-13T15:57:19.398Z,1015.13
2018-12-13T15:58:19.354Z,1015.12
2018-12-13T15:59:19.357Z,1015.14
2018-12-13T16:00:19.330Z,1015.14
2018-12-13T16:01:19.337Z,1015.13
2018-12-13T16:02:19.309Z,1015.16
2018-12-13T16:03:19.304Z,1015.15
2018-12-13T16:04:19.304Z,1015.14
2018-12-13T16:05:19.276Z,1015.15
2018-12-13T16:06:19.273Z,1015.15
2018-12-13T16:07:19.257Z,1015.20
2018-12-13T16:08:19.250Z,1015.19
2018-12-13T16:09:19.250Z,1015.15
2018-12-13T16:10:19.244Z,1015.15
2018-12-13T16:11:19.212Z,1015.22
2018-12-13T16:12:19.202Z,1015.17
2018-12-13T16:13:19.196Z,1015.14
2018-12-13T16:14:19.195Z,1015.16
2018-12-13T16:15:19.167Z,1015.20
2018-12-13T16:16:19.158Z,1015.15
2018-12-13T16:17:19.149Z,1015.19
2018-12-13T16:18:19.184Z,1015.19
2018-12-13T16:19:19.146Z,1015.14
2018-12-13T16:20:19.117Z,1015.22
2018-12-13T16:21:19.104Z,1015.19
2018-12-13T16:22:19.112Z,1015.16
2018-12-13T16:23:19.085Z,1015.19
2018-12-13T16:24:19.091Z,1015.17
2018-12-13T16:25:19.068Z,1015.18
2018-12-13T16:26:19.049Z,1015.17
2018-12-13T16:27:19.062Z,1015.17
2018-12-13T16:28:19.030Z,1015.17
2018-12-13T16:29:19.036Z,1015.19
2018-12-13T16:30:19.009Z,1015.17
2018-12-13T16:31:19.077Z,1015.18
2018-12-13T16:32:18.993Z,1015.18
2018-12-13T16:33:18.975Z,1015.22
2018-12-13T16:34:18.985Z,1015.22
2018-12-13T16:35:18.956Z,1015.21
2018-12-13T16:36:18.945Z,1015.24
2018-12-13T16:37:18.931Z,1015.17
2018-12-13T16:38:18.923Z,1015.20
2018-12-13T16:39:18.930Z,1015.23
2018-12-13T16:40:18.899Z,1015.26
2018-12-13T16:41:18.888Z,1015.21
2018-12-13T16:42:18.898Z,1015.19
2018-12-13T16:43:18.871Z,1015.25
2018-12-13T16:44:18.877Z,1015.18
2018-12-13T16:45:18.848Z,1015.21
2018-12-13T16:46:18.838Z,1015.19
2018-12-13T16:47:18.823Z,1015.21
2018-12-13T16:48:18.820Z,1015.19
2018-12-13T16:49:18.828Z,1015.21
2018-12-13T16:50:18.802Z,1015.18
2018-12-13T16:51:18.805Z,1015.19
2018-12-13T16:52:18.769Z,1015.15
2018-12-13T16:53:18.763Z,1015.14
2018-12-13T16:54:18.768Z,1015.09
2018-12-13T16:55:18.738Z,1015.11
2018-12-13T16:56:18.733Z,1015.12
2018-12-13T16:57:18.729Z,1015.12
2018-12-13T16:58:18.708Z,1015.04
2018-12-13T16:59:18.732Z,1015.09
2018-12-13T17:00:18.686Z,1015.11
2018-12-13T17:01:18.675Z,1015.08
2018-12-13T17:02:18.664Z,1015.11
2018-12-13T17:03:18.651Z,1015.09
2018-12-13T17:04:18.660Z,1015.10
2018-12-13T17:05:18.631Z,1015.13
2018-12-13T17:06:18.627Z,1015.16
2018-12-13T17:07:18.609Z,1015.10
2018-12-13T17:08:18.598Z,1015.13